createdAt,value
2019-05-19T00:02:18.815Z,45.87
2019-05-19T00:04:47.261Z,46.97
2019-05-19T00:07:15.719Z,53.17
2019-05-19T00:09:44.156Z,48.33
2019-05-19T00:12:12.592Z,55.67
2019-05-19T00:14:41.032Z,50.73
2019-05-19T00:17:09.539Z,55.17
2019-05-19T00:19:38.052Z,49.17
2019-05-19T00:22:06.484Z,53.70
2019-05-19T00:24:34.924Z,54.47
2019-05-19T00:27:03.425Z,62.00
2019-05-19T00:29:31.856Z,50.50
2019-05-19T00:32:00.284Z,48.47
2019-05-19T00:34:28.720Z,56.27
2019-05-19T00:36:57.156Z,51.97
2019-05-19T00:39:25.663Z,52.67
2019-05-19T00:41:54.180Z,50.57
2019-05-19T00:44:22.635Z,55.83
2019-05-19T00:46:51.125Z,57.43
2019-05-19T00:49:19.565Z,57.30
2019-05-19T00:51:47.997Z,61.20
2019-05-19T00:54:16.508Z,56.67
2019-05-19T00:56:45.202Z,58.30
2019-05-19T00:59:14.574Z,60.17
2019-05-19T01:01:43.090Z,57.07
2019-05-19T01:04:11.508Z,55.23
2019-05-19T01:06:39.957Z,63.07
2019-05-19T01:09:08.469Z,58.40
2019-05-19T01:11:36.898Z,60.93
2019-05-19T01:14:05.711Z,62.20
2019-05-19T01:16:34.141Z,62.60
2019-05-19T01:19:02.685Z,64.03
2019-05-19T01:21:31.830Z,60.60
2019-05-19T01:24:00.269Z,65.00
2019-05-19T01:26:28.705Z,54.87
2019-05-19T01:28:57.262Z,60.77
2019-05-19T01:31:25.731Z,63.50
2019-05-19T01:33:54.218Z,62.33
2019-05-19T01:36:22.663Z,64.73
2019-05-19T01:38:51.085Z,63.77
2019-05-19T01:41:19.503Z,70.47
2019-05-19T01:43:47.950Z,70.60
2019-05-19T01:46:16.362Z,64.30
2019-05-19T01:48:44.805Z,66.90
2019-05-19T01:51:13.246Z,67.40
2019-05-19T01:53:41.654Z,66.33
2019-05-19T01:56:10.100Z,66.63
2019-05-19T01:58:38.536Z,62.83
2019-05-19T02:01:06.990Z,58.83
2019-05-19T02:03:35.436Z,62.90
2019-05-19T02:06:03.926Z,67.60
2019-05-19T02:08:32.367Z,66.27
2019-05-19T02:11:00.811Z,73.17
2019-05-19T02:13:29.227Z,64.83
2019-05-19T02:15:57.673Z,66.30
2019-05-19T02:18:26.089Z,59.20
2019-05-19T02:20:54.523Z,65.17
2019-05-19T02:23:22.951Z,63.87
2019-05-19T02:25:51.405Z,70.60
2019-05-19T02:28:19.859Z,70.27
2019-05-19T02:30:48.289Z,69.93
2019-05-19T02:33:16.776Z,71.80
2019-05-19T02:35:45.202Z,66.30
2019-05-19T02:38:13.636Z,69.70
2019-05-19T02:40:45.144Z,74.33
2019-05-19T02:43:15.220Z,73.73
2019-05-19T02:45:44.897Z,73.73
2019-05-19T02:48:14.189Z,75.27
2019-05-19T02:50:52.441Z,81.43
2019-05-19T02:53:15.452Z,69.73
2019-05-19T02:55:44.567Z,77.70
2019-05-19T02:58:13.728Z,90.27
2019-05-19T03:00:43.248Z,82.93
2019-05-19T03:03:11.765Z,82.90
2019-05-19T03:05:40.205Z,80.90
2019-05-19T03:08:08.714Z,85.53
2019-05-19T03:10:37.191Z,85.83
2019-05-19T03:13:05.627Z,85.60
2019-05-19T03:15:34.060Z,92.20
2019-05-19T03:18:02.507Z,88.97
2019-05-19T03:20:30.935Z,86.70
2019-05-19T03:22:59.379Z,90.50
2019-05-19T03:25:27.829Z,88.20
2019-05-19T03:27:56.375Z,93.07
2019-05-19T03:30:34.978Z,94.27
2019-05-19T03:33:17.228Z,98.53
2019-05-19T03:35:45.728Z,87.90
2019-05-19T03:38:14.166Z,93.37
2019-05-19T03:40:42.617Z,93.63
2019-05-19T03:43:11.039Z,91.17
2019-05-19T03:45:39.561Z,97.10
2019-05-19T03:48:08.052Z,91.77
2019-05-19T03:50:36.527Z,104.53
2019-05-19T03:53:05.022Z,95.93
2019-05-19T03:55:33.468Z,93.33
2019-05-19T03:58:01.922Z,89.77
2019-05-19T04:00:30.364Z,95.30
2019-05-19T04:02:58.872Z,114.53
2019-05-19T04:05:27.358Z,98.00
2019-05-19T04:07:55.968Z,85.10
2019-05-19T04:10:24.411Z,103.60
2019-05-19T04:12:52.846Z,103.30
2019-05-19T04:15:21.341Z,100.50
2019-05-19T04:17:49.797Z,104.80
2019-05-19T04:20:18.781Z,92.10
2019-05-19T04:22:47.216Z,96.03
2019-05-19T04:25:15.737Z,106.53
2019-05-19T04:27:44.208Z,92.00
2019-05-19T04:30:12.881Z,94.43
2019-05-19T04:32:41.296Z,96.70
2019-05-19T04:35:09.794Z,89.50
2019-05-19T04:37:38.221Z,91.10
2019-05-19T04:40:07.136Z,98.43
2019-05-19T04:42:35.553Z,95.83
2019-05-19T04:45:04.829Z,91.97
2019-05-19T04:47:33.270Z,104.60
2019-05-19T04:50:01.701Z,87.83
2019-05-19T04:52:30.126Z,93.37
2019-05-19T04:54:58.568Z,90.50
2019-05-19T04:57:26.986Z,97.07
2019-05-19T04:59:55.423Z,100.30
2019-05-19T05:02:23.846Z,95.73
2019-05-19T05:04:52.286Z,101.93
2019-05-19T05:07:20.734Z,97.90
2019-05-19T05:09:49.150Z,85.40
2019-05-19T05:12:17.594Z,91.40
2019-05-19T05:14:46.030Z,99.40
2019-05-19T05:17:14.466Z,95.03
2019-05-19T05:19:42.883Z,97.50
2019-05-19T05:22:21.845Z,102.63
2019-05-19T05:24:41.482Z,94.60
2019-05-19T05:27:09.940Z,104.60
2019-05-19T05:29:38.630Z,88.60
2019-05-19T05:32:07.055Z,93.37
2019-05-19T05:34:35.522Z,86.27
2019-05-19T05:37:03.959Z,83.47
2019-05-19T05:39:32.394Z,90.53
2019-05-19T05:42:00.831Z,77.23
2019-05-19T05:44:29.272Z,85.97
2019-05-19T05:46:57.775Z,101.03
2019-05-19T05:49:26.199Z,91.50
2019-05-19T05:51:54.631Z,85.33
2019-05-19T05:54:23.055Z,80.70
2019-05-19T05:56:51.487Z,76.60
2019-05-19T05:59:19.963Z,80.13
2019-05-19T06:01:48.679Z,79.10
2019-05-19T06:04:17.095Z,82.10
2019-05-19T06:06:45.931Z,82.67
2019-05-19T06:09:14.547Z,80.93
2019-05-19T06:11:42.995Z,81.27
2019-05-19T06:14:11.455Z,82.03
2019-05-19T06:16:39.939Z,76.93
2019-05-19T06:19:08.392Z,84.53
2019-05-19T06:21:36.835Z,80.50
2019-05-19T06:24:05.255Z,82.40
2019-05-19T06:26:33.696Z,72.50
2019-05-19T06:29:02.126Z,72.93
2019-05-19T06:31:30.632Z,73.37
2019-05-19T06:33:59.073Z,72.40
2019-05-19T06:36:27.520Z,72.17
2019-05-19T06:38:56.299Z,70.10
2019-05-19T06:41:25.159Z,72.70
2019-05-19T06:43:53.639Z,69.20
2019-05-19T06:46:22.117Z,71.47
2019-05-19T06:48:50.552Z,71.10
2019-05-19T06:51:18.975Z,69.07
2019-05-19T06:53:47.417Z,69.30
2019-05-19T06:56:15.836Z,81.90
2019-05-19T06:58:44.265Z,68.77
2019-05-19T07:01:12.688Z,69.93
2019-05-19T07:03:41.121Z,66.00
2019-05-19T07:06:09.566Z,67.53
2019-05-19T07:08:38.052Z,68.17
2019-05-19T07:11:06.561Z,65.50
2019-05-19T07:13:34.981Z,68.30
2019-05-19T07:16:03.422Z,62.87
2019-05-19T07:18:31.857Z,62.37
2019-05-19T07:21:00.284Z,62.00
2019-05-19T07:23:28.984Z,62.80
2019-05-19T07:25:57.625Z,64.83
2019-05-19T07:28:26.077Z,64.30
2019-05-19T07:30:54.514Z,63.50
2019-05-19T07:33:22.962Z,61.83
2019-05-19T07:35:51.386Z,60.57
2019-05-19T07:38:19.848Z,55.63
2019-05-19T07:40:48.347Z,57.60
2019-05-19T07:43:16.855Z,59.70
2019-05-19T07:45:45.362Z,59.23
2019-05-19T07:48:13.838Z,54.77
2019-05-19T07:50:42.439Z,53.23
2019-05-19T07:53:10.923Z,56.43
2019-05-19T07:55:39.408Z,55.37
2019-05-19T07:58:07.887Z,54.10
2019-05-19T08:00:36.451Z,53.80
2019-05-19T08:03:04.907Z,56.27
2019-05-19T08:05:34.036Z,53.30
2019-05-19T08:08:02.670Z,50.90
2019-05-19T08:10:31.239Z,49.10
2019-05-19T08:12:59.788Z,53.17
2019-05-19T08:15:28.271Z,60.30
2019-05-19T08:17:56.803Z,55.87
2019-05-19T08:20:25.280Z,50.33
2019-05-19T08:22:53.822Z,52.03
2019-05-19T08:25:22.311Z,54.77
2019-05-19T08:27:50.849Z,55.23
2019-05-19T08:30:20.043Z,51.10
2019-05-19T08:32:48.546Z,51.70
2019-05-19T08:35:17.029Z,51.67
2019-05-19T08:37:45.470Z,61.13
2019-05-19T08:40:14.129Z,47.13
2019-05-19T08:42:42.545Z,53.10
2019-05-19T08:45:11.055Z,48.27
2019-05-19T08:47:39.505Z,53.60
2019-05-19T08:50:08.061Z,46.33
2019-05-19T08:52:36.509Z,43.63
2019-05-19T08:55:06.469Z,44.97
2019-05-19T08:57:35.012Z,41.60
2019-05-19T09:00:05.249Z,43.70
2019-05-19T09:02:33.706Z,42.90
2019-05-19T09:05:02.152Z,36.60
2019-05-19T09:07:30.650Z,49.30
2019-05-19T09:09:59.091Z,32.93
2019-05-19T09:12:27.626Z,38.10
2019-05-19T09:14:56.083Z,33.80
2019-05-19T09:17:24.572Z,36.87
2019-05-19T09:19:53.019Z,41.63
2019-05-19T09:22:21.457Z,40.43
2019-05-19T09:24:49.889Z,37.00
2019-05-19T09:27:18.320Z,36.67
2019-05-19T09:29:46.761Z,33.50
2019-05-19T09:32:15.272Z,38.17
2019-05-19T09:34:43.693Z,35.37
2019-05-19T09:37:12.135Z,36.60
2019-05-19T09:39:40.572Z,35.60
2019-05-19T09:42:09.021Z,37.37
2019-05-19T09:44:37.441Z,40.23
2019-05-19T09:47:05.865Z,36.03
2019-05-19T09:49:35.090Z,36.20
2019-05-19T09:52:05.198Z,39.13
2019-05-19T09:54:44.659Z,36.83
2019-05-19T09:57:04.085Z,39.60
2019-05-19T09:59:32.517Z,35.10
2019-05-19T10:02:00.954Z,33.30
2019-05-19T10:04:29.462Z,32.60
2019-05-19T10:06:57.911Z,37.33
2019-05-19T10:09:47.538Z,34.30
2019-05-19T10:12:15.994Z,39.30
2019-05-19T10:14:44.426Z,46.10
2019-05-19T10:17:12.866Z,31.33
2019-05-19T10:19:41.378Z,28.50
2019-05-19T10:22:09.880Z,32.83
2019-05-19T10:24:38.438Z,33.60
2019-05-19T10:27:06.902Z,35.83
2019-05-19T10:29:35.469Z,42.50
2019-05-19T10:32:04.032Z,37.97
2019-05-19T10:34:32.470Z,38.03
2019-05-19T10:37:00.894Z,31.67
2019-05-19T10:39:29.334Z,27.30
2019-05-19T10:41:57.856Z,29.67
2019-05-19T10:44:26.292Z,29.73
2019-05-19T10:46:54.726Z,32.07
2019-05-19T10:49:23.171Z,29.73
2019-05-19T10:51:51.647Z,26.63
2019-05-19T10:54:20.087Z,31.60
2019-05-19T10:56:48.539Z,25.30
2019-05-19T10:59:17.335Z,25.70
2019-05-19T11:01:45.788Z,24.97
2019-05-19T11:04:14.234Z,32.47
2019-05-19T11:06:42.673Z,27.00
2019-05-19T11:09:11.195Z,32.07
2019-05-19T11:11:39.647Z,31.33
2019-05-19T11:14:08.132Z,32.20
2019-05-19T11:16:36.579Z,29.80
2019-05-19T11:19:05.072Z,31.27
2019-05-19T11:21:33.496Z,20.37
2019-05-19T11:24:01.945Z,18.23
2019-05-19T11:26:30.388Z,17.57
2019-05-19T11:28:58.812Z,19.60
2019-05-19T11:31:27.265Z,21.63
2019-05-19T11:33:55.720Z,24.93
2019-05-19T11:36:24.164Z,22.60
2019-05-19T11:38:52.600Z,26.63
2019-05-19T11:41:21.041Z,26.53
2019-05-19T11:43:49.476Z,24.90
2019-05-19T11:46:17.950Z,19.43
2019-05-19T11:48:46.449Z,17.90
2019-05-19T11:51:15.130Z,16.50
2019-05-19T11:53:43.569Z,16.33
2019-05-19T11:56:11.993Z,18.10
2019-05-19T11:58:40.479Z,18.63
2019-05-19T12:01:08.981Z,17.23
2019-05-19T12:03:37.426Z,19.53
2019-05-19T12:06:05.841Z,25.63
2019-05-19T12:08:34.281Z,12.07
2019-05-19T12:11:02.730Z,15.30
2019-05-19T12:13:34.657Z,12.87
2019-05-19T12:16:01.309Z,12.50
2019-05-19T12:18:29.774Z,17.20
2019-05-19T12:20:58.223Z,13.80
2019-05-19T12:23:26.733Z,11.80
2019-05-19T12:25:55.206Z,13.47
2019-05-19T12:28:23.646Z,11.30
2019-05-19T12:30:52.090Z,14.20
2019-05-19T12:33:20.601Z,10.13
2019-05-19T12:35:49.098Z,11.20
2019-05-19T12:38:17.612Z,11.30
2019-05-19T12:40:46.025Z,8.77
2019-05-19T12:43:14.453Z,8.70
2019-05-19T12:45:42.954Z,8.20
2019-05-19T12:48:11.424Z,8.40
2019-05-19T12:50:39.854Z,7.80
2019-05-19T12:53:08.292Z,6.60
2019-05-19T12:55:36.722Z,8.13
2019-05-19T12:58:05.141Z,7.90
2019-05-19T13:00:33.582Z,6.83
2019-05-19T13:03:02.013Z,7.10
2019-05-19T13:05:30.534Z,8.63
2019-05-19T13:07:59.002Z,5.90
2019-05-19T13:10:27.719Z,6.17
2019-05-19T13:12:56.254Z,7.00
2019-05-19T13:15:24.722Z,8.93
2019-05-19T13:17:53.307Z,9.40
2019-05-19T13:20:21.802Z,7.70
2019-05-19T13:22:50.223Z,10.93
2019-05-19T13:25:18.651Z,8.93
2019-05-19T13:27:47.072Z,8.30
2019-05-19T13:30:15.685Z,9.50
2019-05-19T13:32:44.105Z,8.70
2019-05-19T13:35:13.318Z,10.07
2019-05-19T13:37:41.795Z,9.20
2019-05-19T13:40:10.569Z,9.93
2019-05-19T13:42:38.991Z,8.63
2019-05-19T13:45:10.371Z,10.23
2019-05-19T13:47:38.791Z,8.27
2019-05-19T13:50:08.163Z,14.77
2019-05-19T13:52:36.587Z,10.73
2019-05-19T13:55:09.345Z,10.30
2019-05-19T13:57:37.739Z,17.43
2019-05-19T14:00:06.501Z,11.30
2019-05-19T14:02:34.950Z,9.07
2019-05-19T14:05:03.451Z,13.03
2019-05-19T14:07:31.891Z,13.47
2019-05-19T14:10:00.331Z,12.10
2019-05-19T14:12:28.767Z,12.57
2019-05-19T14:14:57.213Z,13.93
2019-05-19T14:17:25.615Z,12.90
2019-05-19T14:19:54.068Z,13.43
2019-05-19T14:22:22.536Z,11.50
2019-05-19T14:24:50.958Z,13.43
2019-05-19T14:27:29.218Z,10.57
2019-05-19T14:29:49.554Z,8.73
2019-05-19T14:32:17.995Z,7.63
2019-05-19T14:34:46.423Z,7.07
2019-05-19T14:37:14.831Z,6.10
2019-05-19T14:39:43.275Z,5.87
2019-05-19T14:42:13.343Z,4.72
2019-05-19T14:44:41.759Z,4.30
2019-05-19T14:47:10.202Z,3.58
2019-05-19T14:49:38.623Z,3.58
2019-05-19T14:52:07.064Z,3.37
2019-05-19T14:54:35.480Z,2.95
2019-05-19T14:57:03.919Z,3.33
2019-05-19T14:59:32.359Z,3.00
2019-05-19T15:02:00.783Z,3.40
2019-05-19T15:04:29.203Z,2.98
2019-05-19T15:06:57.656Z,2.90
2019-05-19T15:09:26.071Z,2.97
2019-05-19T15:11:54.511Z,2.90
2019-05-19T15:14:23.184Z,3.22
2019-05-19T15:16:51.620Z,3.35
2019-05-19T15:19:20.044Z,4.28
2019-05-19T15:21:48.492Z,4.50
2019-05-19T15:24:16.902Z,5.10
2019-05-19T15:26:45.339Z,5.10
2019-05-19T15:29:13.751Z,5.80
2019-05-19T15:31:42.270Z,7.23
2019-05-19T15:34:10.712Z,11.37
2019-05-19T15:36:39.218Z,13.83
2019-05-19T15:39:07.665Z,18.47
2019-05-19T15:41:36.096Z,14.50
2019-05-19T15:44:04.540Z,19.10
2019-05-19T15:46:32.951Z,18.97
2019-05-19T15:49:01.409Z,16.70
2019-05-19T15:51:36.850Z,21.03
2019-05-19T15:53:59.999Z,19.67
2019-05-19T15:56:28.424Z,17.80
2019-05-19T15:58:56.860Z,16.57
2019-05-19T16:01:25.326Z,17.63
2019-05-19T16:03:53.813Z,18.00
2019-05-19T16:06:22.254Z,14.53
2019-05-19T16:08:50.672Z,17.10
2019-05-19T16:11:19.129Z,26.83
2019-05-19T16:13:47.556Z,25.57
2019-05-19T16:16:16.020Z,17.33
2019-05-19T16:18:44.461Z,23.37
2019-05-19T16:21:12.905Z,22.53
2019-05-19T16:23:41.363Z,20.97
2019-05-19T16:26:09.804Z,24.90
2019-05-19T16:28:38.228Z,47.40
2019-05-19T16:31:06.828Z,33.77
2019-05-19T16:33:35.243Z,23.10
2019-05-19T16:36:03.720Z,17.97
2019-05-19T16:38:32.128Z,10.20
2019-05-19T16:41:00.549Z,8.20
2019-05-19T16:43:28.984Z,5.70
2019-05-19T16:45:57.422Z,5.10
2019-05-19T16:48:25.840Z,14.73
2019-05-19T16:50:54.267Z,3.10
2019-05-19T16:53:22.692Z,3.13
2019-05-19T16:55:51.121Z,8.10
2019-05-19T16:58:21.454Z,4.63
2019-05-19T17:00:49.723Z,28.63
2019-05-19T17:03:18.241Z,21.00
2019-05-19T17:05:46.689Z,17.60
2019-05-19T17:08:15.121Z,14.33
2019-05-19T17:10:43.537Z,14.10
2019-05-19T17:13:12.006Z,14.90
2019-05-19T17:15:40.441Z,22.70
2019-05-19T17:18:08.873Z,20.60
2019-05-19T17:20:37.292Z,13.93
2019-05-19T17:23:05.724Z,13.20
2019-05-19T17:25:34.158Z,19.97
2019-05-19T17:28:02.576Z,9.07
2019-05-19T17:30:31.015Z,19.43
2019-05-19T17:32:59.436Z,10.83
2019-05-19T17:35:27.868Z,7.63
2019-05-19T17:37:56.284Z,8.60
2019-05-19T17:40:24.721Z,9.13
2019-05-19T17:42:53.154Z,11.50
2019-05-19T17:45:21.735Z,12.37
2019-05-19T17:47:53.218Z,12.20
2019-05-19T17:50:32.179Z,8.00
2019-05-19T17:53:00.675Z,7.87
2019-05-19T17:55:31.097Z,12.33
2019-05-19T17:58:01.307Z,7.23
2019-05-19T18:00:37.749Z,10.90
2019-05-19T18:03:06.754Z,7.20
2019-05-19T18:05:35.423Z,6.27
2019-05-19T18:08:04.190Z,7.77
2019-05-19T18:10:32.626Z,8.97
2019-05-19T18:13:01.058Z,9.67
2019-05-19T18:15:29.561Z,7.60
2019-05-19T18:17:57.994Z,6.93
2019-05-19T18:20:26.416Z,9.10
2019-05-19T18:22:54.848Z,9.70
2019-05-19T18:25:23.378Z,7.60
2019-05-19T18:27:51.874Z,12.93
2019-05-19T18:30:20.444Z,7.90
2019-05-19T18:32:48.937Z,7.90
2019-05-19T18:35:17.369Z,9.37
2019-05-19T18:37:45.793Z,12.03
2019-05-19T18:40:14.411Z,8.70
2019-05-19T18:42:42.870Z,7.80
2019-05-19T18:45:11.434Z,10.00
2019-05-19T18:47:39.874Z,7.23
2019-05-19T18:50:08.437Z,13.17
2019-05-19T18:52:36.873Z,13.43
2019-05-19T18:55:06.833Z,8.90
2019-05-19T18:57:35.274Z,15.43
2019-05-19T19:00:07.306Z,9.47
2019-05-19T19:02:35.795Z,9.00
2019-05-19T19:05:06.647Z,9.00
2019-05-19T19:07:48.782Z,8.27
2019-05-19T19:10:17.203Z,9.23
2019-05-19T19:12:45.635Z,8.73
2019-05-19T19:15:14.335Z,10.23
2019-05-19T19:17:42.894Z,10.03
2019-05-19T19:20:11.776Z,13.97
2019-05-19T19:22:40.193Z,11.03
2019-05-19T19:25:08.978Z,11.87
2019-05-19T19:27:37.394Z,12.07
2019-05-19T19:30:07.964Z,10.90
2019-05-19T19:32:36.381Z,12.37
2019-05-19T19:35:08.085Z,9.53
2019-05-19T19:37:36.516Z,9.07
2019-05-19T19:40:07.317Z,12.90
2019-05-19T19:42:35.773Z,11.53
2019-05-19T19:45:04.936Z,9.90
2019-05-19T19:47:33.371Z,10.13
2019-05-19T19:50:01.817Z,12.00
2019-05-19T19:52:30.233Z,11.53
2019-05-19T19:54:58.668Z,14.13
2019-05-19T19:57:27.086Z,8.97
2019-05-19T19:59:55.516Z,8.87
2019-05-19T20:02:23.945Z,8.47
2019-05-19T20:04:52.378Z,9.03
2019-05-19T20:07:20.817Z,11.77
2019-05-19T20:09:49.601Z,12.73
2019-05-19T20:12:18.044Z,11.60
2019-05-19T20:14:46.749Z,10.33
2019-05-19T20:17:15.185Z,10.80
2019-05-19T20:19:43.619Z,11.07
2019-05-19T20:22:12.052Z,10.00
2019-05-19T20:24:40.499Z,18.23
2019-05-19T20:27:08.999Z,10.53
2019-05-19T20:29:37.412Z,12.20
2019-05-19T20:32:05.836Z,9.60
2019-05-19T20:34:34.259Z,11.03
2019-05-19T20:37:02.708Z,12.30
2019-05-19T20:39:31.190Z,13.37
2019-05-19T20:41:59.648Z,13.83
2019-05-19T20:44:47.416Z,14.47
2019-05-19T20:47:15.840Z,9.50
2019-05-19T20:49:44.265Z,10.80
2019-05-19T20:52:12.709Z,12.33
2019-05-19T20:54:41.119Z,10.67
2019-05-19T20:57:09.556Z,20.23
2019-05-19T20:59:37.977Z,12.57
2019-05-19T21:02:06.400Z,9.10
2019-05-19T21:04:34.821Z,8.90
2019-05-19T21:07:03.269Z,8.77
2019-05-19T21:09:31.682Z,9.53
2019-05-19T21:12:00.113Z,14.30
2019-05-19T21:14:28.529Z,8.83
2019-05-19T21:16:56.961Z,10.30
2019-05-19T21:19:25.402Z,13.33
2019-05-19T21:21:53.811Z,11.40
2019-05-19T21:24:22.254Z,10.93
2019-05-19T21:26:50.711Z,13.50
2019-05-19T21:29:19.117Z,10.60
2019-05-19T21:31:47.566Z,10.20
2019-05-19T21:34:16.012Z,12.20
2019-05-19T21:36:44.443Z,12.00
2019-05-19T21:39:12.886Z,13.03
2019-05-19T21:41:41.326Z,14.47
2019-05-19T21:44:09.758Z,12.83
2019-05-19T21:46:38.274Z,12.00
2019-05-19T21:49:06.694Z,12.00
2019-05-19T21:51:35.134Z,13.77
2019-05-19T21:54:03.610Z,11.87
2019-05-19T21:56:32.043Z,10.43
2019-05-19T21:59:00.455Z,11.23
2019-05-19T22:01:28.976Z,16.40
2019-05-19T22:03:57.374Z,12.53
2019-05-19T22:06:27.442Z,11.40
2019-05-19T22:08:55.873Z,13.20
2019-05-19T22:11:24.302Z,13.03
2019-05-19T22:13:52.721Z,12.50
2019-05-19T22:16:21.155Z,12.73
2019-05-19T22:18:49.631Z,14.00
2019-05-19T22:21:18.072Z,11.60
2019-05-19T22:23:46.500Z,10.57
2019-05-19T22:26:14.974Z,11.70
2019-05-19T22:28:43.428Z,13.27
2019-05-19T22:31:11.872Z,10.47
2019-05-19T22:33:40.296Z,15.77
2019-05-19T22:36:08.725Z,10.57
2019-05-19T22:38:37.152Z,13.00
2019-05-19T22:41:05.568Z,11.10
2019-05-19T22:43:34.008Z,13.30
2019-05-19T22:46:02.433Z,12.63
2019-05-19T22:48:30.873Z,12.53
2019-05-19T22:50:59.291Z,13.63
2019-05-19T22:53:27.721Z,11.03
2019-05-19T22:55:56.166Z,12.63
2019-05-19T22:58:24.601Z,14.00
2019-05-19T23:00:53.025Z,14.60
2019-05-19T23:03:21.532Z,13.33
2019-05-19T23:05:49.960Z,11.63
2019-05-19T23:08:18.397Z,10.30
2019-05-19T23:10:46.826Z,12.90
2019-05-19T23:13:15.541Z,20.00
2019-05-19T23:15:43.958Z,18.83
2019-05-19T23:18:12.398Z,17.53
2019-05-19T23:20:40.882Z,16.67
2019-05-19T23:23:09.319Z,19.87
2019-05-19T23:25:37.747Z,37.73
2019-05-19T23:28:06.187Z,25.87
2019-05-19T23:30:34.618Z,28.47
2019-05-19T23:33:03.035Z,24.90
2019-05-19T23:35:31.479Z,36.77
2019-05-19T23:37:59.911Z,27.30
2019-05-19T23:40:28.367Z,32.17
2019-05-19T23:42:56.867Z,43.63
2019-05-19T23:45:25.290Z,32.57
2019-05-19T23:47:53.739Z,36.03
2019-05-19T23:50:22.155Z,41.37
2019-05-19T23:52:50.606Z,37.80
2019-05-19T23:55:19.108Z,35.37
2019-05-19T23:57:47.528Z,38.10
